Time;durP1;ratioP1;P1;durP2;ratioP2;P2;SDS_P1;SDS_P2;PMS_P1;PMS_P2;Temp;Humidity;BMP_temperature;BMP_pressure;BME280_temperature;BME280_humidity;BME280_pressure;Samples;Min_cycle;Max_cycle;Signal;HPM_P1;HPM_P2
2023/04/21 03:02:12;;;;;;;1.92;1.73;;;17.30;52.80;;;;;;5154554;22;45735;-60
2023/04/21 03:04:38;;;;;;;1.83;1.40;;;17.30;52.80;;;;;;4959630;28;45574;-59
2023/04/21 03:07:04;;;;;;;1.25;1.15;;;17.30;52.80;;;;;;4988267;28;45238;-60
2023/04/21 03:09:29;;;;;;;1.88;1.63;;;17.30;52.80;;;;;;4967026;28;44990;-60
2023/04/21 03:11:55;;;;;;;1.63;1.50;;;17.30;52.80;;;;;;4987802;28;45961;-60
2023/04/21 03:14:20;;;;;;;1.88;1.27;;;17.20;52.80;;;;;;4990135;28;46036;-58
2023/04/21 03:16:46;;;;;;;1.63;1.38;;;17.20;52.80;;;;;;4977266;28;45563;-60
2023/04/21 03:19:11;;;;;;;1.67;1.58;;;17.20;52.80;;;;;;4974086;28;45256;-58
2023/04/21 03:21:37;;;;;;;2.08;1.55;;;17.20;52.80;;;;;;4986954;28;46162;-59
2023/04/21 03:24:04;;;;;;;2.13;1.52;;;17.20;52.80;;;;;;4994917;28;44920;-59
2023/04/21 03:26:30;;;;;;;1.77;1.60;;;17.20;52.80;;;;;;4987799;28;45287;-60
2023/04/21 03:28:55;;;;;;;1.65;1.55;;;17.20;52.80;;;;;;4991581;28;44950;-60
2023/04/21 03:31:21;;;;;;;1.88;1.50;;;17.20;52.80;;;;;;4981485;28;45673;-59
2023/04/21 03:33:46;;;;;;;1.88;1.65;;;17.20;52.80;;;;;;4997659;28;45034;-60
2023/04/21 03:36:12;;;;;;;1.80;1.48;;;17.20;52.80;;;;;;4987644;28;45342;-60
2023/04/21 03:38:37;;;;;;;1.50;1.40;;;17.20;52.80;;;;;;4993619;28;45406;-60
2023/04/21 03:41:03;;;;;;;1.90;1.60;;;17.20;52.80;;;;;;4984362;28;46153;-60
2023/04/21 03:43:29;;;;;;;2.20;1.38;;;17.20;52.80;;;;;;4995338;28;45318;-60
2023/04/21 03:45:55;;;;;;;1.58;1.40;;;17.20;52.80;;;;;;4985206;28;44756;-60
2023/04/21 03:48:20;;;;;;;1.40;1.30;;;17.20;52.80;;;;;;4993600;28;45253;-60
2023/04/21 03:50:46;;;;;;;1.85;1.50;;;17.20;52.80;;;;;;4988813;28;45218;-60
2023/04/21 03:53:11;;;;;;;2.30;1.52;;;17.20;52.80;;;;;;4992995;28;45290;-60
2023/04/21 03:55:37;;;;;;;1.60;1.40;;;17.20;52.80;;;;;;4991536;28;45376;-60
2023/04/21 03:58:02;;;;;;;1.58;1.38;;;17.20;52.80;;;;;;4993690;28;45385;-60
2023/04/21 04:00:28;;;;;;;1.90;1.40;;;17.10;52.80;;;;;;4981668;28;45146;-59
2023/04/21 04:02:53;;;;;;;1.70;1.50;;;17.10;52.90;;;;;;4997124;28;44911;-60
2023/04/21 04:05:19;;;;;;;1.95;1.73;;;17.10;52.90;;;;;;4995617;28;45431;-60
2023/04/21 04:07:44;;;;;;;2.03;1.75;;;17.10;52.80;;;;;;4994951;28;44847;-60
2023/04/21 04:10:10;;;;;;;1.92;1.73;;;17.10;52.90;;;;;;4987192;28;45877;-60
2023/04/21 04:12:36;;;;;;;1.52;1.42;;;17.10;52.90;;;;;;4993346;28;44974;-60
2023/04/21 04:15:02;;;;;;;2.28;1.80;;;17.10;52.90;;;;;;4996030;28;44777;-59
2023/04/21 04:17:27;;;;;;;2.03;1.70;;;17.10;52.90;;;;;;4978614;28;45440;-59
2023/04/21 04:19:53;;;;;;;2.42;1.80;;;17.10;52.90;;;;;;4992090;28;46191;-60
2023/04/21 04:22:18;;;;;;;1.70;1.40;;;17.10;52.90;;;;;;4995924;28;45151;-60
2023/04/21 04:24:44;;;;;;;1.80;1.60;;;17.10;53.00;;;;;;4979255;28;45305;-59
2023/04/21 04:27:12;;;;;;;1.73;1.30;;;17.10;52.90;;;;;;4986842;28;45577;-60
2023/04/21 04:29:38;;;;;;;1.60;1.50;;;17.10;52.90;;;;;;4982933;28;46210;-59
2023/04/21 04:32:05;;;;;;;2.30;1.88;;;17.10;52.90;;;;;;4979643;28;45160;-60
2023/04/21 04:34:31;;;;;;;1.67;1.58;;;17.10;52.90;;;;;;4992481;28;45231;-60
2023/04/21 04:36:57;;;;;;;2.17;1.65;;;17.00;52.80;;;;;;4984940;28;45402;-59
2023/04/21 04:39:24;;;;;;;1.48;1.30;;;17.10;52.90;;;;;;4990591;28;47133;-59
2023/04/21 04:41:51;;;;;;;1.88;1.40;;;17.10;52.90;;;;;;4981546;28;45325;-59
2023/04/21 04:44:17;;;;;;;1.60;1.38;;;17.00;52.80;;;;;;4994898;28;45257;-58
2023/04/21 04:46:44;;;;;;;1.90;1.45;;;17.10;52.90;;;;;;4985628;28;45059;-58
2023/04/21 04:49:09;;;;;;;1.77;1.58;;;17.10;53.00;;;;;;4990719;28;46154;-59
2023/04/21 04:51:35;;;;;;;1.60;1.50;;;17.10;52.90;;;;;;4965162;28;45592;-58
2023/04/21 04:54:01;;;;;;;2.15;1.83;;;17.00;52.90;;;;;;4992612;28;45320;-57
2023/04/21 04:56:26;;;;;;;2.22;1.60;;;17.00;52.80;;;;;;4983993;28;45632;-58
2023/04/21 04:58:52;;;;;;;2.00;1.50;;;17.00;52.90;;;;;;4968754;28;46883;-58
2023/04/21 05:01:17;;;;;;;2.28;1.50;;;17.00;52.90;;;;;;4976718;28;45521;-59
2023/04/21 05:03:43;;;;;;;1.73;1.48;;;17.00;52.90;;;;;;4995701;28;44743;-59
2023/04/21 05:06:09;;;;;;;1.92;1.60;;;17.00;52.90;;;;;;4986994;28;45778;-58
2023/04/21 05:08:35;;;;;;;2.58;1.42;;;17.00;52.90;;;;;;4957095;28;47178;-58
2023/04/21 05:11:00;;;;;;;1.48;1.30;;;17.00;52.90;;;;;;4986924;28;45132;-59
2023/04/21 05:13:26;;;;;;;2.20;1.75;;;17.00;52.90;;;;;;4994741;28;44830;-58
2023/04/21 05:15:59;;;;;;;1.92;1.63;;;17.00;52.90;;;;;;4969369;28;45243;-58
2023/04/21 05:18:25;;;;;;;1.98;1.50;;;17.00;53.00;;;;;;4973265;28;45769;-58
2023/04/21 05:20:50;;;;;;;1.60;1.40;;;17.00;52.90;;;;;;4989260;28;46454;-59
2023/04/21 05:23:16;;;;;;;1.63;1.52;;;17.00;53.50;;;;;;4992419;28;45006;-59
2023/04/21 05:25:41;;;;;;;1.88;1.67;;;17.00;52.80;;;;;;4989801;28;44724;-59
2023/04/21 05:28:07;;;;;;;1.75;1.50;;;17.10;52.60;;;;;;4944892;28;45961;-59
2023/04/21 05:30:32;;;;;;;1.65;1.33;;;17.30;52.20;;;;;;4979791;28;45679;-59
2023/04/21 05:32:58;;;;;;;2.13;1.88;;;17.30;52.00;;;;;;4994399;28;45479;-58
2023/04/21 05:35:24;;;;;;;1.52;1.42;;;17.40;51.80;;;;;;4994056;28;45340;-57
2023/04/21 05:37:50;;;;;;;2.15;1.65;;;17.40;51.80;;;;;;4999652;28;45246;-59
2023/04/21 05:40:15;;;;;;;1.38;1.23;;;17.30;52.00;;;;;;4989015;28;45261;-59
2023/04/21 05:42:41;;;;;;;1.60;1.50;;;17.20;52.30;;;;;;4996327;28;44657;-58
2023/04/21 05:45:06;;;;;;;2.83;1.80;;;17.10;52.40;;;;;;5001117;28;45482;-59
2023/04/21 05:47:32;;;;;;;2.03;1.70;;;17.10;52.50;;;;;;4989033;28;46167;-60
2023/04/21 05:49:57;;;;;;;1.50;1.30;;;17.00;52.60;;;;;;4992890;28;45296;-58
2023/04/21 05:52:23;;;;;;;1.77;1.58;;;17.10;52.60;;;;;;4986158;28;45215;-58
2023/04/21 05:54:49;;;;;;;1.95;1.70;;;17.10;52.70;;;;;;4995554;28;44911;-60
2023/04/21 05:57:17;;;;;;;4.50;2.78;;;17.10;52.60;;;;;;4996997;28;45846;-60
2023/04/21 05:59:42;;;;;;;4.68;3.65;;;17.10;52.50;;;;;;4977573;28;44582;-60
2023/04/21 06:02:08;;;;;;;5.78;4.03;;;17.10;52.40;;;;;;4980126;28;45401;-60
2023/04/21 06:04:34;;;;;;;6.47;3.60;;;17.00;52.40;;;;;;4991969;28;45958;-60
2023/04/21 06:07:09;;;;;;;3.78;3.25;;;17.00;52.50;;;;;;4989501;28;45880;-60
2023/04/21 06:09:35;;;;;;;2.97;2.58;;;17.00;52.50;;;;;;4991634;28;45159;-60
2023/04/21 06:12:04;;;;;;;5.13;2.60;;;17.10;52.60;;;;;;4993779;28;45334;-60
2023/04/21 06:14:29;;;;;;;3.97;2.80;;;17.20;52.50;;;;;;4990956;28;45143;-59
2023/04/21 06:16:55;;;;;;;2.85;2.33;;;17.40;52.30;;;;;;4985874;28;45914;-60
2023/04/21 06:19:20;;;;;;;3.55;2.28;;;17.60;52.10;;;;;;4990514;28;45163;-59
2023/04/21 06:21:46;;;;;;;3.50;2.42;;;17.80;51.80;;;;;;4971898;28;45449;-59
2023/04/21 06:24:11;;;;;;;3.08;2.20;;;18.20;51.00;;;;;;4998029;28;45219;-59
2023/04/21 06:26:37;;;;;;;4.22;2.45;;;18.50;50.70;;;;;;4989910;28;45889;-60
2023/04/21 06:29:02;;;;;;;5.03;2.17;;;18.80;50.00;;;;;;4997972;28;45167;-60
2023/04/21 06:31:28;;;;;;;5.70;2.15;;;19.00;49.80;;;;;;4971058;28;45789;-60
2023/04/21 06:33:53;;;;;;;2.88;1.95;;;18.90;50.00;;;;;;5001039;28;45252;-60
2023/04/21 06:36:21;;;;;;;4.35;2.20;;;19.00;50.20;;;;;;4973382;28;45001;-58
2023/04/21 06:38:47;;;;;;;3.80;2.00;;;19.00;50.30;;;;;;4990480;28;45222;-60
2023/04/21 06:41:12;;;;;;;3.40;2.00;;;19.10;50.30;;;;;;4973055;28;45666;-60
2023/04/21 06:43:38;;;;;;;3.58;1.73;;;19.20;50.40;;;;;;4979061;28;44835;-59
2023/04/21 06:46:04;;;;;;;3.97;2.40;;;19.30;50.40;;;;;;4972045;28;46406;-60
2023/04/21 06:48:30;;;;;;;2.83;2.10;;;19.40;50.30;;;;;;4955940;28;45250;-60
2023/04/21 06:50:55;;;;;;;3.30;2.20;;;19.40;50.30;;;;;;4992544;28;45203;-60
2023/04/21 06:53:21;;;;;;;2.00;1.80;;;19.50;50.30;;;;;;4985332;28;45232;-58
2023/04/21 06:55:47;;;;;;;2.97;2.10;;;19.50;50.20;;;;;;4969912;28;45683;-60
2023/04/21 06:58:13;;;;;;;2.40;1.90;;;19.60;50.10;;;;;;4994718;28;45284;-60
2023/04/21 07:00:38;;;;;;;2.55;2.03;;;19.70;50.20;;;;;;4991135;28;45359;-60
2023/04/21 07:03:05;;;;;;;7.93;2.13;;;19.80;50.10;;;;;;4976446;28;45417;-60
2023/04/21 07:05:30;;;;;;;2.50;1.88;;;19.90;50.10;;;;;;4991262;28;46223;-60
2023/04/21 07:07:58;;;;;;;2.15;1.88;;;20.00;50.00;;;;;;4991228;28;45337;-59
2023/04/21 07:10:27;;;;;;;3.50;2.58;;;20.10;50.00;;;;;;4959030;28;45184;-60
2023/04/21 07:12:53;;;;;;;2.25;2.05;;;20.10;49.90;;;;;;4999728;28;44728;-59
2023/04/21 07:15:19;;;;;;;2.08;1.83;;;20.20;49.90;;;;;;4985390;28;45584;-60
2023/04/21 07:17:44;;;;;;;4.15;2.00;;;20.30;49.80;;;;;;4972978;28;45263;-60
2023/04/21 07:20:11;;;;;;;2.08;1.88;;;20.40;49.80;;;;;;4996259;28;45242;-59
2023/04/21 07:22:37;;;;;;;2.47;1.88;;;20.50;49.70;;;;;;4995682;28;44873;-59
2023/04/21 07:25:05;;;;;;;2.65;1.98;;;20.60;49.70;;;;;;4998762;28;46216;-59
2023/04/21 07:27:31;;;;;;;2.40;1.95;;;20.60;49.60;;;;;;4956229;28;44678;-60
2023/04/21 07:29:57;;;;;;;2.55;1.92;;;20.70;49.60;;;;;;4979672;28;44995;-61
2023/04/21 07:32:22;;;;;;;3.13;2.15;;;20.80;49.60;;;;;;4988212;28;45261;-61
2023/04/21 07:34:48;;;;;;;;;;;20.80;49.40;;;;;;4992880;28;46006;-60
2023/04/21 07:37:14;;;;;;;;;;;20.90;49.00;;;;;;4988594;28;45205;-58
2023/04/21 07:39:39;;;;;;;;;;;21.00;49.10;;;;;;4996079;28;45254;-57
2023/04/21 07:42:07;;;;;;;;;;;21.00;49.00;;;;;;4995290;28;45207;-58
2023/04/21 07:44:32;;;;;;;;;;;21.10;49.10;;;;;;4998681;28;45348;-59
2023/04/21 07:46:58;;;;;;;;;;;21.10;48.90;;;;;;4985178;28;45004;-59
2023/04/21 07:49:23;;;;;;;;;;;21.20;48.90;;;;;;5001314;28;45321;-59
2023/04/21 07:51:49;;;;;;;;;;;21.30;48.90;;;;;;4989201;28;45658;-59
2023/04/21 07:54:14;;;;;;;;;;;21.30;48.80;;;;;;4998177;28;46711;-57
2023/04/21 07:56:40;;;;;;;;;;;21.40;48.70;;;;;;4990821;28;45069;-59
2023/04/21 07:59:05;;;;;;;;;;;21.50;48.70;;;;;;4991880;28;44739;-59
2023/04/21 08:01:31;;;;;;;;;;;21.60;48.60;;;;;;4984642;28;45449;-58
2023/04/21 08:03:56;;;;;;;;;;;21.60;48.50;;;;;;4996742;28;46062;-57
2023/04/21 08:06:21;;;;;;;;;;;21.70;48.50;;;;;;4988244;28;44684;-58
2023/04/21 08:08:47;;;;;;;;;;;21.70;48.30;;;;;;4990752;28;45267;-59
2023/04/21 08:11:12;;;;;;;;;;;21.80;48.40;;;;;;4989423;28;45093;-59
2023/04/21 08:13:38;;;;;;;;;;;21.80;48.30;;;;;;4986643;28;46119;-60
2023/04/21 08:16:03;;;;;;;;;;;21.90;48.30;;;;;;4992133;28;44763;-60
2023/04/21 08:18:30;;;;;;;;;;;21.90;48.30;;;;;;4992026;28;45554;-60
2023/04/21 08:20:56;;;;;;;;;;;22.00;48.40;;;;;;4988662;28;45010;-60
2023/04/21 08:23:22;;;;;;;;;;;22.10;48.30;;;;;;4998459;28;46125;-60
2023/04/21 08:25:47;;;;;;;;;;;22.10;48.20;;;;;;4990211;28;45195;-59
2023/04/21 08:28:14;;;;;;;;;;;22.20;48.20;;;;;;4996994;28;46883;-60
2023/04/21 08:30:40;;;;;;;;;;;22.20;48.10;;;;;;4988129;28;46355;-59
2023/04/21 08:33:07;;;;;;;;;;;22.30;48.20;;;;;;4993503;28;45532;-60
2023/04/21 08:35:33;;;;;;;;;;;22.40;48.10;;;;;;4990201;28;45286;-59
2023/04/21 08:37:58;;;;;;;;;;;22.40;48.00;;;;;;4991804;28;45184;-59
2023/04/21 08:40:42;;;;;;;;;;;22.50;47.90;;;;;;4970167;28;45467;-59
2023/04/21 08:43:07;;;;;;;;;;;22.60;47.90;;;;;;4993978;28;46226;-58
2023/04/21 08:45:33;;;;;;;;;;;22.60;47.80;;;;;;4989615;28;45286;-59
2023/04/21 08:47:59;;;;;;;;;;;22.60;47.80;;;;;;4992903;28;45148;-60
2023/04/21 08:50:26;;;;;;;;;;;22.70;47.70;;;;;;4984533;28;45536;-60
2023/04/21 08:52:52;;;;;;;;;;;22.70;47.70;;;;;;4995956;28;46150;-59
2023/04/21 08:55:17;;;;;;;;;;;22.80;47.70;;;;;;4954165;28;45493;-59
2023/04/21 08:57:43;;;;;;;;;;;22.80;47.60;;;;;;4994815;28;44798;-59
2023/04/21 09:00:09;;;;;;;;;;;22.90;47.60;;;;;;4990664;28;45214;-60
2023/04/21 09:02:35;;;;;;;;;;;22.90;47.50;;;;;;4979396;28;45141;-60
2023/04/21 09:05:01;;;;;;;;;;;22.90;47.50;;;;;;4973427;28;45193;-59
2023/04/21 09:07:31;;;;;;;;;;;22.90;47.50;;;;;;4954321;28;45242;-59
2023/04/21 09:09:56;;;;;;;;;;;22.90;47.60;;;;;;4988543;28;45574;-60
2023/04/21 09:12:22;;;;;;;;;;;22.80;47.70;;;;;;4985114;28;45948;-59
2023/04/21 09:14:47;;;;;;;;;;;22.80;47.80;;;;;;4973532;28;45699;-60
2023/04/21 09:17:14;;;;;;;;;;;22.70;47.90;;;;;;4989689;28;45251;-60
2023/04/21 09:19:40;;;;;;;;;;;22.70;48.00;;;;;;4989855;28;45538;-62
2023/04/21 09:22:05;;;;;;;;;;;22.60;48.10;;;;;;4983437;28;45266;-60
2023/04/21 09:24:31;;;;;;;;;;;22.60;48.20;;;;;;4993245;28;44717;-60
2023/04/21 09:26:56;;;;;;;;;;;22.60;48.30;;;;;;4989132;28;45342;-59
2023/04/21 09:29:22;;;;;;;;;;;22.60;48.30;;;;;;4991236;28;45519;-60
2023/04/21 09:31:48;;;;;;;;;;;22.50;48.30;;;;;;4977957;28;46646;-59
2023/04/21 09:34:17;;;;;;;;;;;22.50;48.40;;;;;;4987837;28;45218;-59
2023/04/21 09:36:43;;;;;;;;;;;22.50;48.50;;;;;;4983019;28;45219;-61
2023/04/21 09:39:09;;;;;;;;;;;22.50;48.50;;;;;;4967841;28;44730;-60
2023/04/21 09:41:35;;;;;;;;;;;22.40;48.60;;;;;;4988613;28;46125;-61
2023/04/21 09:44:00;;;;;;;;;;;22.40;48.60;;;;;;4991034;28;45006;-61
2023/04/21 09:46:26;;;;;;;;;;;22.40;48.70;;;;;;4984420;28;46646;-61
2023/04/21 09:48:51;;;;;;;;;;;22.40;48.70;;;;;;4971552;28;45087;-61
2023/04/21 09:51:17;;;;;;;;;;;22.40;48.80;;;;;;4970111;28;46278;-61
2023/04/21 09:53:43;;;;;;;;;;;22.40;48.90;;;;;;4992502;28;45086;-61
2023/04/21 09:56:12;;;;;;;;;;;22.30;48.80;;;;;;4971853;28;45417;-60
2023/04/21 09:58:47;;;;;;;;;;;22.30;48.90;;;;;;4992721;28;45773;-61
2023/04/21 10:01:13;;;;;;;;;;;22.30;49.00;;;;;;4967596;28;46722;-61
2023/04/21 10:03:39;;;;;;;;;;;22.20;49.00;;;;;;4975603;28;45194;-61
2023/04/21 10:06:05;;;;;;;;;;;22.20;49.10;;;;;;4972681;28;45476;-61
2023/04/21 10:08:31;;;;;;;;;;;22.20;49.10;;;;;;4995643;28;45271;-61
2023/04/21 10:10:56;;;;;;;;;;;22.20;49.10;;;;;;4954676;28;46924;-61
2023/04/21 10:13:22;;;;;;;;;;;22.20;49.20;;;;;;4992873;28;45443;-61
2023/04/21 10:15:47;;;;;;;;;;;22.10;49.20;;;;;;4981974;28;45121;-60
2023/04/21 10:18:13;;;;;;;;;;;22.20;49.20;;;;;;4993651;28;44955;-61
2023/04/21 10:20:59;;;;;;;;;;;22.10;49.30;;;;;;4992497;28;46204;-59
2023/04/21 10:23:31;;;;;;;;;;;22.10;49.30;;;;;;4978285;28;44864;-62
2023/04/21 10:26:00;;;;;;;;;;;22.00;49.30;;;;;;4970636;28;45116;-60
2023/04/21 10:28:37;;;;;;;;;;;22.00;49.40;;;;;;5000936;28;44875;-61
2023/04/21 10:31:15;;;;;;;;;;;22.00;49.40;;;;;;4983005;28;45980;-60
2023/04/21 10:33:41;;;;;;;;;;;22.00;49.40;;;;;;4971410;28;46807;-62
2023/04/21 10:36:09;;;;;;;;;;;22.00;49.50;;;;;;4987080;28;45290;-62
2023/04/21 10:38:38;;;;;;;;;;;21.90;49.40;;;;;;4976184;28;44699;-61
2023/04/21 10:41:07;;;;;;;;;;;21.90;49.40;;;;;;4983901;28;45922;-61
2023/04/21 10:43:40;;;;;;;;;;;21.90;49.50;;;;;;4976808;28;45233;-61
2023/04/21 10:46:24;;;;;;;;;;;21.90;49.50;;;;;;4985015;28;45215;-62
2023/04/21 10:48:53;;;;;;;;;;;21.80;49.50;;;;;;4988530;28;45162;-61
2023/04/21 10:51:18;;;;;;;;;;;21.90;49.70;;;;;;4990157;28;46976;-60
2023/04/21 10:53:44;;;;;;;;;;;21.80;49.60;;;;;;4978935;28;45206;-60
2023/04/21 10:56:10;;;;;;;;;;;21.80;49.70;;;;;;4985447;28;45208;-60
2023/04/21 10:58:37;;;;;;;;;;;21.70;49.70;;;;;;4977966;28;45547;-60
2023/04/21 11:01:03;;;;;;;;;;;21.70;49.70;;;;;;4967864;28;46011;-61
2023/04/21 11:03:35;;;;;;;;;;;21.70;49.70;;;;;;4998775;28;45558;-61
2023/04/21 11:06:08;;;;;;;;;;;21.70;49.70;;;;;;4989662;28;46645;-61
2023/04/21 11:08:34;;;;;;;;;;;21.60;49.70;;;;;;4975880;28;44745;-61
2023/04/21 11:10:59;;;;;;;;;;;21.60;49.80;;;;;;4968196;28;45962;-61
2023/04/21 11:13:25;;;;;;;;;;;21.60;49.80;;;;;;4991329;28;45218;-60
2023/04/21 11:15:58;;;;;;;;;;;21.60;49.80;;;;;;4984994;28;45033;-61
2023/04/21 11:18:32;;;;;;;;;;;21.60;49.80;;;;;;4992830;28;45245;-62
2023/04/21 11:21:08;;;;;;;;;;;21.60;49.80;;;;;;4989707;28;45879;-61
2023/04/21 11:23:33;;;;;;;;;;;21.50;49.90;;;;;;4988908;28;45670;-61
2023/04/21 11:25:59;;;;;;;;;;;21.50;50.00;;;;;;4982045;28;45784;-61
2023/04/21 11:28:24;;;;;;;;;;;21.50;50.00;;;;;;4986891;28;45372;-62
2023/04/21 11:30:50;;;;;;;;;;;21.50;50.00;;;;;;4966991;28;45781;-59
2023/04/21 11:33:15;;;;;;;;;;;21.40;50.00;;;;;;4966211;28;45498;-62
2023/04/21 11:35:41;;;;;;;;;;;21.40;50.10;;;;;;4984062;28;45434;-61
2023/04/21 11:38:06;;;;;;;;;;;21.40;50.70;;;;;;4991213;28;45252;-62
2023/04/21 11:40:43;;;;;;;;;;;21.40;50.10;;;;;;4985692;28;45457;-61
2023/04/21 11:43:09;;;;;;;;;;;21.40;50.10;;;;;;4988764;28;46370;-61
2023/04/21 11:45:34;;;;;;;;;;;21.30;50.10;;;;;;4983857;28;46392;-61
2023/04/21 11:48:12;;;;;;;;;;;21.30;50.10;;;;;;4986653;28;45378;-60
2023/04/21 11:50:38;;;;;;;;;;;21.30;50.10;;;;;;4984490;28;46641;-61
2023/04/21 11:53:04;;;;;;;;;;;21.30;48.50;;;;;;4984801;28;45626;-60
2023/04/21 11:55:29;;;;;;;;;;;21.40;46.50;;;;;;4967739;28;44748;-61
2023/04/21 11:57:56;;;;;;;;;;;21.40;45.40;;;;;;4988802;28;45424;-60
2023/04/21 12:00:21;;;;;;;;;;;21.30;44.30;;;;;;4981650;28;45492;-62
2023/04/21 12:02:54;;;;;;;;;;;21.30;43.90;;;;;;4968431;28;46913;-60
2023/04/21 12:05:20;;;;;;;;;;;21.30;43.10;;;;;;4985856;28;45541;-59
2023/04/21 12:07:50;;;;;;;;;;;21.30;42.70;;;;;;4988695;28;45764;-58
2023/04/21 12:10:17;;;;;;;;;;;21.30;42.70;;;;;;4974910;28;46265;-61
2023/04/21 12:12:42;;;;;;;;;;;21.30;43.50;;;;;;4984796;28;45773;-62
2023/04/21 12:15:08;;;;;;;;;;;21.20;43.40;;;;;;4984351;28;45256;-60
2023/04/21 12:17:37;;;;;;;;;;;21.20;43.70;;;;;;4963417;28;45298;-61
2023/04/21 12:20:05;;;;;;;;;;;21.20;43.50;;;;;;4982822;28;45899;-59
2023/04/21 12:22:30;;;;;;;;;;;21.20;44.00;;;;;;4983716;28;45133;-60
2023/04/21 12:24:55;;;;;;;;;;;21.20;44.00;;;;;;4982325;28;45993;-58
2023/04/21 12:27:22;;;;;;;;;;;21.20;44.00;;;;;;4971150;28;46004;-61
2023/04/21 12:29:47;;;;;;;;;;;21.10;44.20;;;;;;4986520;28;47136;-58
2023/04/21 12:32:13;;;;;;;;;;;21.10;44.40;;;;;;4974283;28;45238;-61
2023/04/21 12:34:39;;;;;;;;;;;21.10;44.40;;;;;;4987021;28;45119;-62
2023/04/21 12:37:06;;;;;;;;;;;21.10;44.60;;;;;;4983946;28;45232;-61
2023/04/21 12:39:31;;;;;;;;;;;21.10;44.50;;;;;;4985185;28;45400;-61
2023/04/21 12:41:57;;;;;;;;;;;21.10;44.60;;;;;;4965354;28;45268;-60
2023/04/21 12:44:22;;;;;;;;;;;21.10;44.80;;;;;;4986593;28;46036;-61
2023/04/21 12:46:48;;;;;;;;;;;21.10;44.80;;;;;;4973385;28;46042;-58
2023/04/21 12:49:14;;;;;;;;;;;21.10;45.00;;;;;;4967680;28;46962;-60
2023/04/21 12:51:40;;;;;;;;;;;21.10;45.00;;;;;;4982919;28;45192;-61
2023/04/21 12:54:05;;;;;;;;;;;21.00;45.10;;;;;;4986990;28;45081;-60
2023/04/21 12:56:31;;;;;;;;;;;21.00;45.10;;;;;;4981430;28;45091;-61
2023/04/21 12:58:57;;;;;;;;;;;21.00;45.20;;;;;;4984049;28;46081;-60
2023/04/21 13:01:22;;;;;;;;;;;21.00;45.30;;;;;;4975891;28;45355;-60
2023/04/21 13:03:48;;;;;;;;;;;21.00;45.40;;;;;;4987705;28;46051;-61
2023/04/21 13:06:15;;;;;;;;;;;21.00;45.40;;;;;;4962568;28;45311;-60
2023/04/21 13:08:41;;;;;;;;;;;21.00;45.50;;;;;;4989242;28;46050;-60
2023/04/21 13:11:06;;;;;;;;;;;21.00;45.60;;;;;;4980100;28;45532;-60
2023/04/21 13:13:32;;;;;;;;;;;21.00;45.80;;;;;;4988693;28;45244;-61
2023/04/21 13:15:57;;;;;;;;;;;20.90;45.80;;;;;;4979011;28;45528;-60
2023/04/21 13:18:23;;;;;;;;;;;20.90;45.80;;;;;;4984018;28;46100;-60
2023/04/21 13:20:48;;;;;;;;;;;20.90;45.90;;;;;;4983041;28;45692;-60
2023/04/21 13:23:14;;;;;;;;;;;20.90;46.00;;;;;;4988794;28;45016;-59
2023/04/21 13:25:40;;;;;;;;;;;20.90;46.10;;;;;;4984007;28;45562;-61
2023/04/21 13:28:06;;;;;;;;;;;20.90;46.10;;;;;;4990602;28;46159;-61
2023/04/21 13:30:32;;;;;;;;;;;20.90;46.20;;;;;;4978060;28;45422;-60
2023/04/21 13:32:58;;;;;;;;;;;20.80;46.30;;;;;;4983573;28;45924;-60
2023/04/21 13:35:23;;;;;;;;;;;20.90;46.50;;;;;;4982305;28;45817;-61
2023/04/21 13:37:49;;;;;;;;;;;20.90;46.50;;;;;;4987389;28;45465;-61
2023/04/21 13:40:14;;;;;;;;;;;20.90;46.50;;;;;;4983420;28;45294;-60
2023/04/21 13:42:40;;;;;;;;;;;20.80;46.50;;;;;;4984938;28;45342;-59
2023/04/21 13:45:06;;;;;;;;;;;20.80;46.70;;;;;;4965828;28;45370;-59
2023/04/21 13:47:31;;;;;;;;;;;20.80;46.70;;;;;;4980306;28;45862;-61
2023/04/21 13:49:57;;;;;;;;;;;20.80;46.70;;;;;;4984667;28;45434;-61
2023/04/21 13:52:22;;;;;;;;;;;20.80;46.80;;;;;;4963364;28;45584;-61
2023/04/21 13:54:49;;;;;;;;;;;20.80;46.90;;;;;;4971364;28;44969;-60
2023/04/21 13:57:15;;;;;;;;;;;20.80;47.00;;;;;;4979673;28;46069;-61
2023/04/21 13:59:40;;;;;;;;;;;20.70;47.00;;;;;;4987417;28;45282;-61
2023/04/21 14:02:06;;;;;;;;;;;20.70;47.00;;;;;;4952309;28;45983;-61
2023/04/21 14:04:31;;;;;;;;;;;20.70;47.10;;;;;;4985714;28;45040;-60
2023/04/21 14:06:57;;;;;;;;;;;20.70;47.10;;;;;;4979747;28;45273;-61
2023/04/21 14:09:22;;;;;;;;;;;20.70;47.10;;;;;;4985080;28;45241;-60
2023/04/21 14:11:48;;;;;;;;;;;20.70;47.20;;;;;;4980813;28;45184;-61
2023/04/21 14:14:13;;;;;;;;;;;20.70;47.20;;;;;;4988050;28;45579;-60
2023/04/21 14:16:39;;;;;;;;;;;20.70;47.20;;;;;;4976905;28;45078;-60
2023/04/21 14:19:04;;;;;;;;;;;20.70;47.30;;;;;;4952359;28;46593;-61
2023/04/21 14:21:31;;;;;;;;;;;20.70;47.40;;;;;;4980569;28;45424;-61
2023/04/21 14:23:56;;;;;;;;;;;20.70;47.40;;;;;;4979713;28;45305;-60
2023/04/21 14:26:22;;;;;;;;;;;20.70;47.40;;;;;;4982068;28;45560;-62
2023/04/21 14:28:48;;;;;;;;;;;20.70;47.40;;;;;;4985750;28;45363;-60
2023/04/21 14:31:13;;;;;;;;;;;20.70;47.50;;;;;;4958608;28;45689;-61
2023/04/21 14:33:40;;;;;;;;;;;20.60;47.50;;;;;;4990647;28;45089;-59
2023/04/21 14:36:05;;;;;;;;;;;20.70;47.60;;;;;;4965997;28;47078;-61
2023/04/21 14:38:32;;;;;;;;;;;20.60;47.60;;;;;;4990914;28;45124;-61
2023/04/21 14:40:57;;;;;;;;;;;20.60;47.60;;;;;;4978729;28;45237;-62
2023/04/21 14:43:23;;;;;;;;;;;20.60;47.60;;;;;;4994893;28;45286;-60
2023/04/21 14:45:48;;;;;;;;;;;20.60;47.70;;;;;;4985478;28;46010;-59
2023/04/21 14:48:13;;;;;;;;;;;20.60;47.70;;;;;;4988571;28;45382;-61
2023/04/21 14:50:39;;;;;;;;;;;20.60;47.70;;;;;;4970139;28;45607;-61
2023/04/21 14:53:05;;;;;;;;;;;20.60;47.80;;;;;;4976646;28;45524;-61
2023/04/21 14:55:31;;;;;;;;;;;20.60;47.80;;;;;;4974849;28;46243;-60
2023/04/21 14:57:56;;;;;;;;;;;20.60;47.80;;;;;;4988843;28;44992;-60
2023/04/21 15:00:22;;;;;;;;;;;20.60;47.80;;;;;;4983839;28;44712;-61
2023/04/21 15:02:48;;;;;;;;;;;20.60;47.90;;;;;;4992492;28;45419;-60
2023/04/21 15:05:13;;;;;;;;;;;20.60;47.90;;;;;;4986869;28;45883;-60
2023/04/21 15:07:39;;;;;;;;;;;20.50;47.90;;;;;;4995788;28;44833;-59
2023/04/21 15:10:06;;;;;;;;;;;20.60;48.00;;;;;;4988864;28;44751;-59
2023/04/21 15:12:31;;;;;;;;;;;20.50;47.90;;;;;;4989868;28;45184;-61
2023/04/21 15:14:57;;;;;;;;;;;20.60;48.00;;;;;;4974954;28;45677;-60
2023/04/21 15:17:22;;;;;;;;;;;20.60;48.00;;;;;;4982515;28;45868;-61
2023/04/21 15:19:48;;;;;;;;;;;20.60;48.10;;;;;;4998113;28;44740;-61
2023/04/21 15:22:13;;;;;;;;;;;20.50;48.00;;;;;;4988738;28;45714;-62
2023/04/21 15:24:39;;;;;;;;;;;20.50;48.10;;;;;;4991555;28;46968;-60
2023/04/21 15:27:05;;;;;;;;;;;20.60;48.10;;;;;;4990310;28;45319;-61
2023/04/21 15:29:30;;;;;;;;;;;20.60;48.10;;;;;;4991185;28;45175;-60
2023/04/21 15:31:56;;;;;;;;;;;20.50;48.10;;;;;;4985408;28;45390;-60
2023/04/21 15:34:21;;;;;;;;;;;20.50;48.20;;;;;;4992241;28;45036;-59
2023/04/21 15:36:46;;;;;;;;;;;20.50;48.20;;;;;;4981738;28;46932;-61
2023/04/21 15:39:15;;;;;;;;;;;20.50;48.30;;;;;;4994521;28;45054;-62
2023/04/21 15:41:40;;;;;;;;;;;20.50;48.30;;;;;;4988238;28;45791;-60
2023/04/21 15:44:06;;;;;;;;;;;20.50;48.30;;;;;;4998770;28;46024;-61
2023/04/21 15:46:33;;;;;;;;;;;20.50;48.40;;;;;;4987874;28;45616;-61
2023/04/21 15:48:58;;;;;;;;;;;20.50;48.40;;;;;;4990096;28;45534;-62
2023/04/21 15:51:24;;;;;;;;;;;20.50;48.40;;;;;;4985641;28;45389;-61
2023/04/21 15:53:49;;;;;;;;;;;20.50;48.40;;;;;;5002740;28;45194;-61
2023/04/21 15:56:15;;;;;;;;;;;20.50;48.40;;;;;;4987900;28;45074;-61
2023/04/21 15:58:41;;;;;;;;;;;20.50;48.50;;;;;;4989241;28;45651;-61
2023/04/21 16:01:06;;;;;;;;;;;20.50;48.50;;;;;;4974026;28;45337;-59
2023/04/21 16:03:32;;;;;;;;;;;20.50;48.50;;;;;;4961247;28;46087;-61
2023/04/21 16:05:57;;;;;;;;;;;20.50;48.60;;;;;;4962747;28;45229;-61
2023/04/21 16:08:22;;;;;;;;;;;20.50;48.50;;;;;;4969045;28;45627;-61
2023/04/21 16:10:48;;;;;;;;;;;20.40;48.50;;;;;;4960957;28;45296;-60
2023/04/21 16:13:14;;;;;;;;;;;20.50;48.60;;;;;;4970837;28;46354;-61
2023/04/21 16:15:39;;;;;;;;;;;20.50;48.60;;;;;;4962460;28;45197;-61
2023/04/21 16:18:05;;;;;;;;;;;20.50;48.70;;;;;;4965734;28;45736;-60
2023/04/21 16:20:35;;;;;;;;;;;20.50;48.70;;;;;;4959841;28;46016;-61
2023/04/21 16:23:00;;;;;;;;;;;20.50;48.70;;;;;;4950919;28;46087;-61
2023/04/21 16:25:26;;;;;;;;;;;20.50;48.70;;;;;;4956277;28;44731;-60
2023/04/21 16:27:51;;;;;;;;;;;20.50;48.70;;;;;;4967574;28;45579;-61
2023/04/21 16:30:17;;;;;;;;;;;20.40;48.70;;;;;;4963655;28;46085;-60
2023/04/21 16:32:42;;;;;;;;;;;20.40;48.70;;;;;;4963169;28;45466;-62
2023/04/21 16:35:08;;;;;;;;;;;20.40;48.70;;;;;;4960228;28;44962;-57
2023/04/21 16:37:39;;;;;;;;;;;20.40;48.70;;;;;;4950684;28;45507;-62
2023/04/21 16:40:05;;;;;;;;;;;20.40;48.80;;;;;;4970764;28;46131;-59